Terminal Aerodrome Forecast
Issued by NWS

Home | Current Version | Previous Version | Text Only | Print | Product List | Glossary On
Versions: 1 2 3 4 5 6 7 8 9 10 11 12 13 14 15 16 17
000
FTUS45 KPSR 032008 AAA
TAFBLH
TAF AMD
KBLH 032008Z 0320/0418 35021G30KT P6SM FEW025
      TEMPO 0320/0321 6SM BLDU BKN025
     FM032100 35016G26KT P6SM SKC
     FM040100 35015KT P6SM SKC
     FM040800 34006KT P6SM SKC=

USA.gov is the U.S. government's official web portal to all federal, state and local government web resources and services.